sensor_id;sensor_type;location;lat;lon;timestamp;P1;durP1;ratioP1;P2;durP2;ratioP2
49962;SDS011;36180;57.678;11.910;2022-11-15T00:00:36;11.25;;;7.25;;
49962;SDS011;36180;57.678;11.910;2022-11-15T00:03:24;11.13;;;7.40;;
49962;SDS011;36180;57.678;11.910;2022-11-15T00:06:10;10.27;;;7.30;;
49962;SDS011;36180;57.678;11.910;2022-11-15T00:08:57;10.02;;;6.60;;
49962;SDS011;36180;57.678;11.910;2022-11-15T00:11:43;10.90;;;7.43;;
49962;SDS011;36180;57.678;11.910;2022-11-15T00:14:28;8.88;;;6.65;;
49962;SDS011;36180;57.678;11.910;2022-11-15T00:17:14;10.07;;;7.10;;
49962;SDS011;36180;57.678;11.910;2022-11-15T00:20:01;12.38;;;7.18;;
49962;SDS011;36180;57.678;11.910;2022-11-15T00:22:46;10.75;;;6.53;;
49962;SDS011;36180;57.678;11.910;2022-11-15T00:25:31;8.70;;;6.55;;
49962;SDS011;36180;57.678;11.910;2022-11-15T00:28:17;11.18;;;7.07;;
49962;SDS011;36180;57.678;11.910;2022-11-15T00:31:03;10.18;;;7.03;;
49962;SDS011;36180;57.678;11.910;2022-11-15T00:33:50;11.15;;;7.00;;
49962;SDS011;36180;57.678;11.910;2022-11-15T00:36:36;11.55;;;7.30;;
49962;SDS011;36180;57.678;11.910;2022-11-15T00:39:22;10.90;;;6.57;;
49962;SDS011;36180;57.678;11.910;2022-11-15T00:42:07;8.00;;;6.50;;
49962;SDS011;36180;57.678;11.910;2022-11-15T00:44:52;10.20;;;6.72;;
49962;SDS011;36180;57.678;11.910;2022-11-15T00:47:38;9.77;;;6.43;;
49962;SDS011;36180;57.678;11.910;2022-11-15T00:50:23;10.55;;;7.13;;
49962;SDS011;36180;57.678;11.910;2022-11-15T00:53:10;10.98;;;7.28;;
49962;SDS011;36180;57.678;11.910;2022-11-15T00:55:56;11.55;;;7.40;;
49962;SDS011;36180;57.678;11.910;2022-11-15T00:58:41;9.75;;;6.60;;
49962;SDS011;36180;57.678;11.910;2022-11-15T01:01:26;11.07;;;6.95;;
49962;SDS011;36180;57.678;11.910;2022-11-15T01:04:12;10.80;;;6.90;;
49962;SDS011;36180;57.678;11.910;2022-11-15T01:06:58;11.32;;;6.63;;
49962;SDS011;36180;57.678;11.910;2022-11-15T01:09:45;9.50;;;6.53;;
49962;SDS011;36180;57.678;11.910;2022-11-15T01:12:30;9.23;;;7.30;;
49962;SDS011;36180;57.678;11.910;2022-11-15T01:15:16;9.95;;;6.70;;
49962;SDS011;36180;57.678;11.910;2022-11-15T01:18:01;9.80;;;6.70;;
49962;SDS011;36180;57.678;11.910;2022-11-15T01:20:47;11.02;;;7.40;;
49962;SDS011;36180;57.678;11.910;2022-11-15T01:23:32;8.43;;;6.70;;
49962;SDS011;36180;57.678;11.910;2022-11-15T01:26:20;7.45;;;6.20;;
49962;SDS011;36180;57.678;11.910;2022-11-15T01:29:06;11.45;;;6.90;;
49962;SDS011;36180;57.678;11.910;2022-11-15T01:31:52;9.13;;;6.60;;
49962;SDS011;36180;57.678;11.910;2022-11-15T01:34:38;9.70;;;6.75;;
49962;SDS011;36180;57.678;11.910;2022-11-15T01:37:23;9.57;;;6.72;;
49962;SDS011;36180;57.678;11.910;2022-11-15T01:40:09;10.90;;;7.38;;
49962;SDS011;36180;57.678;11.910;2022-11-15T01:42:56;9.68;;;7.07;;
49962;SDS011;36180;57.678;11.910;2022-11-15T01:45:42;8.55;;;7.03;;
49962;SDS011;36180;57.678;11.910;2022-11-15T01:48:28;13.30;;;7.72;;
49962;SDS011;36180;57.678;11.910;2022-11-15T01:51:17;11.32;;;6.93;;
49962;SDS011;36180;57.678;11.910;2022-11-15T01:54:04;10.98;;;7.03;;
49962;SDS011;36180;57.678;11.910;2022-11-15T01:56:52;9.70;;;6.97;;
49962;SDS011;36180;57.678;11.910;2022-11-15T01:59:41;9.85;;;6.82;;
49962;SDS011;36180;57.678;11.910;2022-11-15T02:02:28;8.80;;;6.43;;
49962;SDS011;36180;57.678;11.910;2022-11-15T02:05:13;10.15;;;6.47;;
49962;SDS011;36180;57.678;11.910;2022-11-15T02:07:59;11.23;;;8.00;;
49962;SDS011;36180;57.678;11.910;2022-11-15T02:10:45;11.68;;;7.45;;
49962;SDS011;36180;57.678;11.910;2022-11-15T02:13:31;10.63;;;7.05;;
49962;SDS011;36180;57.678;11.910;2022-11-15T02:16:19;10.00;;;7.22;;
49962;SDS011;36180;57.678;11.910;2022-11-15T02:19:13;12.07;;;7.20;;
49962;SDS011;36180;57.678;11.910;2022-11-15T02:22:10;11.50;;;7.15;;
49962;SDS011;36180;57.678;11.910;2022-11-15T02:25:05;12.20;;;7.30;;
49962;SDS011;36180;57.678;11.910;2022-11-15T02:28:28;10.13;;;7.28;;
49962;SDS011;36180;57.678;11.910;2022-11-15T02:31:24;10.38;;;7.18;;
49962;SDS011;36180;57.678;11.910;2022-11-15T02:34:16;11.77;;;7.47;;
49962;SDS011;36180;57.678;11.910;2022-11-15T02:37:07;10.18;;;7.32;;
49962;SDS011;36180;57.678;11.910;2022-11-15T02:39:58;9.07;;;7.05;;
49962;SDS011;36180;57.678;11.910;2022-11-15T02:42:49;8.90;;;7.43;;
49962;SDS011;36180;57.678;11.910;2022-11-15T02:45:54;11.60;;;7.70;;
49962;SDS011;36180;57.678;11.910;2022-11-15T02:48:44;10.52;;;6.88;;
49962;SDS011;36180;57.678;11.910;2022-11-15T02:51:30;10.20;;;7.25;;
49962;SDS011;36180;57.678;11.910;2022-11-15T02:54:18;10.43;;;7.10;;
49962;SDS011;36180;57.678;11.910;2022-11-15T02:57:07;8.77;;;6.60;;
49962;SDS011;36180;57.678;11.910;2022-11-15T03:00:03;12.52;;;7.72;;
49962;SDS011;36180;57.678;11.910;2022-11-15T03:02:57;9.52;;;7.22;;
49962;SDS011;36180;57.678;11.910;2022-11-15T03:05:53;10.73;;;7.70;;
49962;SDS011;36180;57.678;11.910;2022-11-15T03:08:45;10.38;;;7.20;;
49962;SDS011;36180;57.678;11.910;2022-11-15T03:14:23;9.98;;;7.22;;
49962;SDS011;36180;57.678;11.910;2022-11-15T03:17:11;10.95;;;7.47;;
49962;SDS011;36180;57.678;11.910;2022-11-15T03:20:00;9.73;;;7.18;;
49962;SDS011;36180;57.678;11.910;2022-11-15T03:22:49;11.40;;;7.97;;
49962;SDS011;36180;57.678;11.910;2022-11-15T03:25:36;9.52;;;7.30;;
49962;SDS011;36180;57.678;11.910;2022-11-15T03:28:27;11.25;;;7.78;;
49962;SDS011;36180;57.678;11.910;2022-11-15T03:31:15;10.68;;;8.05;;
49962;SDS011;36180;57.678;11.910;2022-11-15T03:34:24;12.07;;;7.93;;
49962;SDS011;36180;57.678;11.910;2022-11-15T03:37:12;11.45;;;7.75;;
49962;SDS011;36180;57.678;11.910;2022-11-15T03:40:00;12.23;;;7.93;;
49962;SDS011;36180;57.678;11.910;2022-11-15T03:42:48;10.30;;;8.00;;
49962;SDS011;36180;57.678;11.910;2022-11-15T03:45:38;11.45;;;7.95;;
49962;SDS011;36180;57.678;11.910;2022-11-15T03:48:26;11.00;;;7.97;;
49962;SDS011;36180;57.678;11.910;2022-11-15T03:51:13;11.85;;;8.50;;
49962;SDS011;36180;57.678;11.910;2022-11-15T03:53:59;11.93;;;8.23;;
49962;SDS011;36180;57.678;11.910;2022-11-15T03:56:49;12.65;;;8.40;;
49962;SDS011;36180;57.678;11.910;2022-11-15T03:59:34;13.57;;;8.82;;
49962;SDS011;36180;57.678;11.910;2022-11-15T04:02:20;10.95;;;8.52;;
49962;SDS011;36180;57.678;11.910;2022-11-15T04:05:06;10.77;;;8.65;;
49962;SDS011;36180;57.678;11.910;2022-11-15T04:07:52;11.05;;;8.52;;
49962;SDS011;36180;57.678;11.910;2022-11-15T04:10:38;13.52;;;9.75;;
49962;SDS011;36180;57.678;11.910;2022-11-15T04:13:25;12.55;;;9.13;;
49962;SDS011;36180;57.678;11.910;2022-11-15T04:16:10;14.07;;;9.82;;
49962;SDS011;36180;57.678;11.910;2022-11-15T04:18:56;11.48;;;8.88;;
49962;SDS011;36180;57.678;11.910;2022-11-15T04:21:59;13.85;;;10.32;;
49962;SDS011;36180;57.678;11.910;2022-11-15T04:25:03;17.17;;;10.63;;
49962;SDS011;36180;57.678;11.910;2022-11-15T04:27:48;13.18;;;10.50;;
49962;SDS011;36180;57.678;11.910;2022-11-15T04:30:36;15.40;;;10.38;;
49962;SDS011;36180;57.678;11.910;2022-11-15T04:33:21;15.13;;;10.32;;
49962;SDS011;36180;57.678;11.910;2022-11-15T04:36:07;15.30;;;10.63;;
49962;SDS011;36180;57.678;11.910;2022-11-15T04:39:15;15.32;;;11.27;;
49962;SDS011;36180;57.678;11.910;2022-11-15T04:42:01;15.98;;;11.40;;
49962;SDS011;36180;57.678;11.910;2022-11-15T04:44:46;16.23;;;11.30;;
49962;SDS011;36180;57.678;11.910;2022-11-15T04:47:33;15.18;;;10.82;;
49962;SDS011;36180;57.678;11.910;2022-11-15T04:50:19;17.75;;;10.80;;
49962;SDS011;36180;57.678;11.910;2022-11-15T04:53:04;15.88;;;10.77;;
49962;SDS011;36180;57.678;11.910;2022-11-15T04:55:50;15.68;;;10.30;;
49962;SDS011;36180;57.678;11.910;2022-11-15T04:58:35;15.93;;;10.07;;
49962;SDS011;36180;57.678;11.910;2022-11-15T05:01:21;14.48;;;10.60;;
49962;SDS011;36180;57.678;11.910;2022-11-15T05:04:08;15.07;;;10.25;;
49962;SDS011;36180;57.678;11.910;2022-11-15T05:07:04;14.82;;;10.43;;
49962;SDS011;36180;57.678;11.910;2022-11-15T05:09:50;14.77;;;10.07;;
49962;SDS011;36180;57.678;11.910;2022-11-15T05:12:36;14.10;;;10.13;;
49962;SDS011;36180;57.678;11.910;2022-11-15T05:15:21;15.32;;;9.90;;
49962;SDS011;36180;57.678;11.910;2022-11-15T05:18:06;14.18;;;9.45;;
49962;SDS011;36180;57.678;11.910;2022-11-15T05:20:53;17.52;;;9.65;;
49962;SDS011;36180;57.678;11.910;2022-11-15T05:23:39;14.05;;;9.82;;
49962;SDS011;36180;57.678;11.910;2022-11-15T05:26:25;13.00;;;9.18;;
49962;SDS011;36180;57.678;11.910;2022-11-15T05:29:11;15.23;;;9.52;;
49962;SDS011;36180;57.678;11.910;2022-11-15T05:31:57;13.45;;;9.57;;
49962;SDS011;36180;57.678;11.910;2022-11-15T05:34:42;12.32;;;8.73;;
49962;SDS011;36180;57.678;11.910;2022-11-15T05:37:29;13.90;;;9.48;;
49962;SDS011;36180;57.678;11.910;2022-11-15T05:40:15;15.45;;;9.43;;
49962;SDS011;36180;57.678;11.910;2022-11-15T05:43:01;13.88;;;9.18;;
49962;SDS011;36180;57.678;11.910;2022-11-15T05:45:47;16.05;;;9.15;;
49962;SDS011;36180;57.678;11.910;2022-11-15T05:48:33;14.50;;;9.18;;
49962;SDS011;36180;57.678;11.910;2022-11-15T05:51:19;15.07;;;9.70;;
49962;SDS011;36180;57.678;11.910;2022-11-15T05:54:07;14.27;;;9.95;;
49962;SDS011;36180;57.678;11.910;2022-11-15T05:56:53;11.38;;;8.77;;
49962;SDS011;36180;57.678;11.910;2022-11-15T05:59:39;15.85;;;9.00;;
49962;SDS011;36180;57.678;11.910;2022-11-15T06:02:26;12.27;;;8.60;;
49962;SDS011;36180;57.678;11.910;2022-11-15T06:05:12;12.85;;;9.02;;
49962;SDS011;36180;57.678;11.910;2022-11-15T06:07:57;13.00;;;9.00;;
49962;SDS011;36180;57.678;11.910;2022-11-15T06:10:45;14.55;;;9.20;;
49962;SDS011;36180;57.678;11.910;2022-11-15T06:13:30;14.85;;;9.52;;
49962;SDS011;36180;57.678;11.910;2022-11-15T06:16:16;13.38;;;9.32;;
49962;SDS011;36180;57.678;11.910;2022-11-15T06:19:02;14.73;;;8.85;;
49962;SDS011;36180;57.678;11.910;2022-11-15T06:21:47;14.93;;;9.35;;
49962;SDS011;36180;57.678;11.910;2022-11-15T06:24:32;12.00;;;7.97;;
49962;SDS011;36180;57.678;11.910;2022-11-15T06:27:19;11.77;;;8.07;;
49962;SDS011;36180;57.678;11.910;2022-11-15T06:30:05;12.35;;;8.43;;
49962;SDS011;36180;57.678;11.910;2022-11-15T06:32:51;12.50;;;8.30;;
49962;SDS011;36180;57.678;11.910;2022-11-15T06:35:42;10.52;;;8.25;;
49962;SDS011;36180;57.678;11.910;2022-11-15T06:38:28;12.95;;;8.13;;
49962;SDS011;36180;57.678;11.910;2022-11-15T06:41:15;11.15;;;8.02;;
49962;SDS011;36180;57.678;11.910;2022-11-15T06:44:02;10.77;;;7.40;;
49962;SDS011;36180;57.678;11.910;2022-11-15T06:46:48;12.07;;;8.25;;
49962;SDS011;36180;57.678;11.910;2022-11-15T06:49:34;14.85;;;8.05;;
49962;SDS011;36180;57.678;11.910;2022-11-15T06:52:20;13.05;;;8.32;;
49962;SDS011;36180;57.678;11.910;2022-11-15T06:55:06;10.85;;;7.82;;
49962;SDS011;36180;57.678;11.910;2022-11-15T06:57:52;10.35;;;7.15;;
49962;SDS011;36180;57.678;11.910;2022-11-15T07:00:40;10.32;;;7.18;;
49962;SDS011;36180;57.678;11.910;2022-11-15T07:03:25;11.40;;;8.13;;
49962;SDS011;36180;57.678;11.910;2022-11-15T07:06:11;10.25;;;7.72;;
49962;SDS011;36180;57.678;11.910;2022-11-15T07:08:56;10.60;;;7.38;;
49962;SDS011;36180;57.678;11.910;2022-11-15T07:11:42;11.15;;;7.88;;
49962;SDS011;36180;57.678;11.910;2022-11-15T07:14:27;12.98;;;7.13;;
49962;SDS011;36180;57.678;11.910;2022-11-15T07:17:14;10.32;;;7.07;;
49962;SDS011;36180;57.678;11.910;2022-11-15T07:20:00;10.93;;;7.70;;
49962;SDS011;36180;57.678;11.910;2022-11-15T07:22:46;11.32;;;7.50;;
49962;SDS011;36180;57.678;11.910;2022-11-15T07:25:31;10.65;;;6.97;;
49962;SDS011;36180;57.678;11.910;2022-11-15T07:28:17;9.82;;;7.18;;
49962;SDS011;36180;57.678;11.910;2022-11-15T07:31:03;12.25;;;7.18;;
49962;SDS011;36180;57.678;11.910;2022-11-15T07:33:51;9.13;;;6.10;;
49962;SDS011;36180;57.678;11.910;2022-11-15T07:36:36;9.40;;;6.57;;
49962;SDS011;36180;57.678;11.910;2022-11-15T07:39:22;11.77;;;7.05;;
49962;SDS011;36180;57.678;11.910;2022-11-15T07:42:07;11.65;;;6.28;;
49962;SDS011;36180;57.678;11.910;2022-11-15T07:45:11;9.93;;;6.15;;
49962;SDS011;36180;57.678;11.910;2022-11-15T07:47:56;11.35;;;6.55;;
49962;SDS011;36180;57.678;11.910;2022-11-15T07:50:43;11.35;;;6.53;;
49962;SDS011;36180;57.678;11.910;2022-11-15T07:53:29;10.88;;;7.22;;
49962;SDS011;36180;57.678;11.910;2022-11-15T07:56:15;9.88;;;6.35;;
49962;SDS011;36180;57.678;11.910;2022-11-15T07:59:00;9.30;;;6.45;;
49962;SDS011;36180;57.678;11.910;2022-11-15T08:01:46;10.07;;;6.95;;
49962;SDS011;36180;57.678;11.910;2022-11-15T08:04:31;9.43;;;6.55;;
49962;SDS011;36180;57.678;11.910;2022-11-15T08:07:18;8.75;;;6.35;;
49962;SDS011;36180;57.678;11.910;2022-11-15T08:10:04;9.23;;;6.78;;
49962;SDS011;36180;57.678;11.910;2022-11-15T08:12:56;10.82;;;6.35;;
49962;SDS011;36180;57.678;11.910;2022-11-15T08:15:43;10.57;;;7.07;;
49962;SDS011;36180;57.678;11.910;2022-11-15T08:18:29;12.68;;;6.40;;
49962;SDS011;36180;57.678;11.910;2022-11-15T08:21:15;10.02;;;6.60;;
49962;SDS011;36180;57.678;11.910;2022-11-15T08:24:05;11.65;;;7.22;;
49962;SDS011;36180;57.678;11.910;2022-11-15T08:26:53;9.05;;;6.72;;
49962;SDS011;36180;57.678;11.910;2022-11-15T08:29:38;9.15;;;6.05;;
49962;SDS011;36180;57.678;11.910;2022-11-15T08:32:25;10.48;;;6.70;;
49962;SDS011;36180;57.678;11.910;2022-11-15T08:35:10;12.05;;;6.85;;
49962;SDS011;36180;57.678;11.910;2022-11-15T08:37:56;10.75;;;6.53;;
49962;SDS011;36180;57.678;11.910;2022-11-15T08:40:43;9.57;;;6.00;;
49962;SDS011;36180;57.678;11.910;2022-11-15T08:43:28;9.57;;;6.45;;
49962;SDS011;36180;57.678;11.910;2022-11-15T08:46:14;9.98;;;6.82;;
49962;SDS011;36180;57.678;11.910;2022-11-15T08:48:59;11.25;;;7.10;;
49962;SDS011;36180;57.678;11.910;2022-11-15T08:51:45;9.82;;;6.63;;
49962;SDS011;36180;57.678;11.910;2022-11-15T08:54:30;10.60;;;7.05;;
49962;SDS011;36180;57.678;11.910;2022-11-15T08:57:17;9.93;;;6.97;;
49962;SDS011;36180;57.678;11.910;2022-11-15T09:00:03;10.32;;;7.03;;
49962;SDS011;36180;57.678;11.910;2022-11-15T09:02:49;9.98;;;6.93;;
49962;SDS011;36180;57.678;11.910;2022-11-15T09:05:35;9.95;;;6.53;;
49962;SDS011;36180;57.678;11.910;2022-11-15T09:08:21;11.85;;;7.25;;
49962;SDS011;36180;57.678;11.910;2022-11-15T09:11:07;11.45;;;6.75;;
49962;SDS011;36180;57.678;11.910;2022-11-15T09:13:55;9.05;;;6.15;;
49962;SDS011;36180;57.678;11.910;2022-11-15T09:16:41;10.02;;;6.65;;
49962;SDS011;36180;57.678;11.910;2022-11-15T09:19:26;9.88;;;6.35;;
49962;SDS011;36180;57.678;11.910;2022-11-15T09:22:12;9.52;;;6.78;;
49962;SDS011;36180;57.678;11.910;2022-11-15T09:24:57;11.82;;;5.95;;
49962;SDS011;36180;57.678;11.910;2022-11-15T09:27:43;9.95;;;6.68;;
49962;SDS011;36180;57.678;11.910;2022-11-15T09:30:30;10.00;;;6.47;;
49962;SDS011;36180;57.678;11.910;2022-11-15T09:33:15;9.93;;;6.47;;
49962;SDS011;36180;57.678;11.910;2022-11-15T09:36:01;9.98;;;6.38;;
49962;SDS011;36180;57.678;11.910;2022-11-15T09:38:48;12.90;;;6.75;;
49962;SDS011;36180;57.678;11.910;2022-11-15T09:41:40;9.40;;;5.97;;
49962;SDS011;36180;57.678;11.910;2022-11-15T09:44:58;9.95;;;5.40;;
49962;SDS011;36180;57.678;11.910;2022-11-15T09:51:30;12.57;;;6.72;;
49962;SDS011;36180;57.678;11.910;2022-11-15T09:54:01;8.25;;;6.68;;
49962;SDS011;36180;57.678;11.910;2022-11-15T09:59:05;8.32;;;5.95;;
49962;SDS011;36180;57.678;11.910;2022-11-15T10:01:41;9.13;;;6.75;;
49962;SDS011;36180;57.678;11.910;2022-11-15T10:04:14;10.32;;;6.32;;
49962;SDS011;36180;57.678;11.910;2022-11-15T10:06:44;10.43;;;6.55;;
49962;SDS011;36180;57.678;11.910;2022-11-15T10:09:13;11.60;;;7.72;;
49962;SDS011;36180;57.678;11.910;2022-11-15T10:11:43;17.92;;;9.98;;
49962;SDS011;36180;57.678;11.910;2022-11-15T10:14:11;11.23;;;7.68;;
49962;SDS011;36180;57.678;11.910;2022-11-15T10:16:45;11.40;;;7.57;;
49962;SDS011;36180;57.678;11.910;2022-11-15T10:19:36;9.75;;;6.53;;
49962;SDS011;36180;57.678;11.910;2022-11-15T10:22:12;11.70;;;7.97;;
49962;SDS011;36180;57.678;11.910;2022-11-15T10:24:45;9.10;;;6.82;;
49962;SDS011;36180;57.678;11.910;2022-11-15T10:27:13;10.32;;;6.93;;
49962;SDS011;36180;57.678;11.910;2022-11-15T10:29:45;11.80;;;8.70;;
49962;SDS011;36180;57.678;11.910;2022-11-15T10:32:13;17.13;;;11.77;;
49962;SDS011;36180;57.678;11.910;2022-11-15T10:34:43;13.00;;;9.60;;
49962;SDS011;36180;57.678;11.910;2022-11-15T10:37:10;10.52;;;6.47;;
49962;SDS011;36180;57.678;11.910;2022-11-15T10:39:37;9.13;;;7.07;;
49962;SDS011;36180;57.678;11.910;2022-11-15T10:42:14;9.75;;;6.30;;
49962;SDS011;36180;57.678;11.910;2022-11-15T10:44:43;8.85;;;5.82;;
49962;SDS011;36180;57.678;11.910;2022-11-15T10:47:20;9.15;;;6.53;;
49962;SDS011;36180;57.678;11.910;2022-11-15T10:49:57;14.45;;;9.80;;
49962;SDS011;36180;57.678;11.910;2022-11-15T10:52:25;10.85;;;8.35;;
49962;SDS011;36180;57.678;11.910;2022-11-15T10:54:53;13.45;;;9.68;;
49962;SDS011;36180;57.678;11.910;2022-11-15T10:57:23;15.20;;;9.85;;
49962;SDS011;36180;57.678;11.910;2022-11-15T10:59:51;8.90;;;6.40;;
49962;SDS011;36180;57.678;11.910;2022-11-15T11:02:26;8.65;;;6.75;;
49962;SDS011;36180;57.678;11.910;2022-11-15T11:04:56;11.00;;;7.07;;
49962;SDS011;36180;57.678;11.910;2022-11-15T11:07:25;9.25;;;6.50;;
49962;SDS011;36180;57.678;11.910;2022-11-15T11:10:00;9.43;;;5.78;;
49962;SDS011;36180;57.678;11.910;2022-11-15T11:12:29;9.95;;;7.35;;
49962;SDS011;36180;57.678;11.910;2022-11-15T11:14:58;10.70;;;6.15;;
49962;SDS011;36180;57.678;11.910;2022-11-15T11:17:29;11.75;;;5.57;;
49962;SDS011;36180;57.678;11.910;2022-11-15T11:20:06;11.18;;;6.03;;
49962;SDS011;36180;57.678;11.910;2022-11-15T11:22:38;9.20;;;5.97;;
49962;SDS011;36180;57.678;11.910;2022-11-15T11:25:14;9.95;;;6.22;;
49962;SDS011;36180;57.678;11.910;2022-11-15T11:27:51;8.27;;;5.20;;
49962;SDS011;36180;57.678;11.910;2022-11-15T11:30:29;9.25;;;5.32;;
49962;SDS011;36180;57.678;11.910;2022-11-15T11:33:10;8.50;;;4.80;;
49962;SDS011;36180;57.678;11.910;2022-11-15T11:35:45;9.40;;;4.43;;
49962;SDS011;36180;57.678;11.910;2022-11-15T11:38:24;9.82;;;5.15;;
49962;SDS011;36180;57.678;11.910;2022-11-15T11:41:15;6.70;;;4.57;;
49962;SDS011;36180;57.678;11.910;2022-11-15T11:43:57;8.95;;;5.85;;
49962;SDS011;36180;57.678;11.910;2022-11-15T11:46:42;11.77;;;7.55;;
49962;SDS011;36180;57.678;11.910;2022-11-15T11:49:16;9.38;;;5.93;;
49962;SDS011;36180;57.678;11.910;2022-11-15T11:51:47;10.05;;;5.82;;
49962;SDS011;36180;57.678;11.910;2022-11-15T11:54:19;8.73;;;5.07;;
49962;SDS011;36180;57.678;11.910;2022-11-15T11:56:48;7.78;;;5.22;;
49962;SDS011;36180;57.678;11.910;2022-11-15T11:59:19;7.95;;;5.78;;
49962;SDS011;36180;57.678;11.910;2022-11-15T12:01:49;12.30;;;5.75;;
49962;SDS011;36180;57.678;11.910;2022-11-15T12:04:17;9.40;;;5.55;;
49962;SDS011;36180;57.678;11.910;2022-11-15T12:06:49;6.88;;;4.80;;
49962;SDS011;36180;57.678;11.910;2022-11-15T12:09:20;6.70;;;4.35;;
49962;SDS011;36180;57.678;11.910;2022-11-15T12:11:50;5.78;;;4.38;;
49962;SDS011;36180;57.678;11.910;2022-11-15T12:14:22;6.60;;;4.10;;
49962;SDS011;36180;57.678;11.910;2022-11-15T12:16:53;7.53;;;4.70;;
49962;SDS011;36180;57.678;11.910;2022-11-15T12:19:19;5.45;;;3.88;;
49962;SDS011;36180;57.678;11.910;2022-11-15T12:21:49;7.05;;;3.58;;
49962;SDS011;36180;57.678;11.910;2022-11-15T12:24:20;6.15;;;3.30;;
49962;SDS011;36180;57.678;11.910;2022-11-15T12:26:50;11.38;;;5.57;;
49962;SDS011;36180;57.678;11.910;2022-11-15T12:29:20;10.40;;;5.70;;
49962;SDS011;36180;57.678;11.910;2022-11-15T12:34:34;6.40;;;3.78;;
49962;SDS011;36180;57.678;11.910;2022-11-15T12:40:19;5.70;;;4.20;;
49962;SDS011;36180;57.678;11.910;2022-11-15T12:45:54;6.53;;;3.80;;
49962;SDS011;36180;57.678;11.910;2022-11-15T12:51:14;5.50;;;3.35;;
49962;SDS011;36180;57.678;11.910;2022-11-15T12:53:41;5.18;;;3.78;;
49962;SDS011;36180;57.678;11.910;2022-11-15T12:56:17;6.13;;;3.20;;
49962;SDS011;36180;57.678;11.910;2022-11-15T12:58:49;4.32;;;3.33;;
49962;SDS011;36180;57.678;11.910;2022-11-15T13:04:25;5.13;;;3.13;;
49962;SDS011;36180;57.678;11.910;2022-11-15T13:06:54;5.75;;;3.17;;
49962;SDS011;36180;57.678;11.910;2022-11-15T13:15:31;5.00;;;2.83;;
49962;SDS011;36180;57.678;11.910;2022-11-15T13:20:56;7.30;;;3.13;;
49962;SDS011;36180;57.678;11.910;2022-11-15T13:23:23;6.43;;;2.90;;
49962;SDS011;36180;57.678;11.910;2022-11-15T13:26:05;7.05;;;3.25;;
49962;SDS011;36180;57.678;11.910;2022-11-15T13:28:38;5.88;;;2.75;;
49962;SDS011;36180;57.678;11.910;2022-11-15T13:33:46;2.90;;;2.58;;
49962;SDS011;36180;57.678;11.910;2022-11-15T13:36:14;4.93;;;2.45;;
49962;SDS011;36180;57.678;11.910;2022-11-15T13:38:42;5.55;;;2.58;;
49962;SDS011;36180;57.678;11.910;2022-11-15T13:41:16;5.25;;;2.53;;
49962;SDS011;36180;57.678;11.910;2022-11-15T13:43:47;4.07;;;2.03;;
49962;SDS011;36180;57.678;11.910;2022-11-15T13:46:15;4.60;;;1.88;;
49962;SDS011;36180;57.678;11.910;2022-11-15T13:48:44;4.30;;;2.20;;
49962;SDS011;36180;57.678;11.910;2022-11-15T13:51:14;4.70;;;2.28;;
49962;SDS011;36180;57.678;11.910;2022-11-15T13:53:44;2.35;;;1.40;;
49962;SDS011;36180;57.678;11.910;2022-11-15T13:56:16;7.90;;;2.22;;
49962;SDS011;36180;57.678;11.910;2022-11-15T13:58:43;5.13;;;2.95;;
49962;SDS011;36180;57.678;11.910;2022-11-15T14:01:15;4.97;;;2.00;;
49962;SDS011;36180;57.678;11.910;2022-11-15T14:03:49;5.38;;;2.78;;
49962;SDS011;36180;57.678;11.910;2022-11-15T14:06:19;3.05;;;2.47;;
49962;SDS011;36180;57.678;11.910;2022-11-15T14:08:58;3.75;;;1.77;;
49962;SDS011;36180;57.678;11.910;2022-11-15T14:11:27;4.43;;;2.72;;
49962;SDS011;36180;57.678;11.910;2022-11-15T14:13:59;4.07;;;2.40;;
49962;SDS011;36180;57.678;11.910;2022-11-15T14:16:34;5.78;;;2.60;;
49962;SDS011;36180;57.678;11.910;2022-11-15T14:19:02;3.97;;;2.70;;
49962;SDS011;36180;57.678;11.910;2022-11-15T14:21:30;4.90;;;2.22;;
49962;SDS011;36180;57.678;11.910;2022-11-15T14:26:42;3.00;;;2.30;;
49962;SDS011;36180;57.678;11.910;2022-11-15T14:29:21;3.50;;;1.85;;
49962;SDS011;36180;57.678;11.910;2022-11-15T14:31:50;3.22;;;1.80;;
49962;SDS011;36180;57.678;11.910;2022-11-15T14:34:17;2.42;;;1.80;;
49962;SDS011;36180;57.678;11.910;2022-11-15T14:36:46;3.17;;;1.80;;
49962;SDS011;36180;57.678;11.910;2022-11-15T14:39:13;1.50;;;1.20;;
49962;SDS011;36180;57.678;11.910;2022-11-15T14:41:40;3.63;;;1.58;;
49962;SDS011;36180;57.678;11.910;2022-11-15T14:44:09;3.60;;;1.13;;
49962;SDS011;36180;57.678;11.910;2022-11-15T14:46:37;4.88;;;1.52;;
49962;SDS011;36180;57.678;11.910;2022-11-15T14:49:05;1.65;;;1.05;;
49962;SDS011;36180;57.678;11.910;2022-11-15T14:51:32;2.90;;;1.10;;
49962;SDS011;36180;57.678;11.910;2022-11-15T14:53:59;2.30;;;1.30;;
49962;SDS011;36180;57.678;11.910;2022-11-15T14:56:26;1.85;;;1.20;;
49962;SDS011;36180;57.678;11.910;2022-11-15T14:58:53;1.55;;;1.27;;
49962;SDS011;36180;57.678;11.910;2022-11-15T15:01:22;3.28;;;1.20;;
49962;SDS011;36180;57.678;11.910;2022-11-15T15:03:50;1.48;;;1.27;;
49962;SDS011;36180;57.678;11.910;2022-11-15T15:06:20;2.00;;;1.10;;
49962;SDS011;36180;57.678;11.910;2022-11-15T15:08:47;2.22;;;1.02;;
49962;SDS011;36180;57.678;11.910;2022-11-15T15:11:16;1.38;;;1.08;;
49962;SDS011;36180;57.678;11.910;2022-11-15T15:13:47;2.50;;;1.10;;
49962;SDS011;36180;57.678;11.910;2022-11-15T15:16:14;2.08;;;1.05;;
49962;SDS011;36180;57.678;11.910;2022-11-15T15:18:41;1.40;;;1.00;;
49962;SDS011;36180;57.678;11.910;2022-11-15T15:21:15;2.25;;;1.13;;
49962;SDS011;36180;57.678;11.910;2022-11-15T15:23:47;1.05;;;0.95;;
49962;SDS011;36180;57.678;11.910;2022-11-15T15:26:15;3.05;;;0.88;;
49962;SDS011;36180;57.678;11.910;2022-11-15T15:28:41;2.47;;;0.82;;
49962;SDS011;36180;57.678;11.910;2022-11-15T15:31:09;1.40;;;0.95;;
49962;SDS011;36180;57.678;11.910;2022-11-15T15:33:36;2.83;;;0.90;;
49962;SDS011;36180;57.678;11.910;2022-11-15T15:36:03;1.38;;;1.00;;
49962;SDS011;36180;57.678;11.910;2022-11-15T15:38:30;1.73;;;1.10;;
49962;SDS011;36180;57.678;11.910;2022-11-15T15:40:59;1.20;;;0.80;;
49962;SDS011;36180;57.678;11.910;2022-11-15T15:43:28;4.18;;;1.40;;
49962;SDS011;36180;57.678;11.910;2022-11-15T15:45:54;2.80;;;1.30;;
49962;SDS011;36180;57.678;11.910;2022-11-15T15:48:21;1.85;;;1.27;;
49962;SDS011;36180;57.678;11.910;2022-11-15T15:50:48;2.13;;;1.30;;
49962;SDS011;36180;57.678;11.910;2022-11-15T15:53:15;2.75;;;1.70;;
49962;SDS011;36180;57.678;11.910;2022-11-15T15:55:42;4.00;;;1.33;;
49962;SDS011;36180;57.678;11.910;2022-11-15T15:58:11;0.85;;;0.80;;
49962;SDS011;36180;57.678;11.910;2022-11-15T16:00:38;0.50;;;0.40;;
49962;SDS011;36180;57.678;11.910;2022-11-15T16:03:05;1.27;;;0.40;;
49962;SDS011;36180;57.678;11.910;2022-11-15T16:05:32;0.88;;;0.68;;
49962;SDS011;36180;57.678;11.910;2022-11-15T16:07:59;1.70;;;0.50;;
49962;SDS011;36180;57.678;11.910;2022-11-15T16:10:26;0.73;;;0.52;;
49962;SDS011;36180;57.678;11.910;2022-11-15T16:12:54;0.80;;;0.70;;
49962;SDS011;36180;57.678;11.910;2022-11-15T16:15:24;0.40;;;0.40;;
49962;SDS011;36180;57.678;11.910;2022-11-15T16:17:53;1.30;;;0.50;;
49962;SDS011;36180;57.678;11.910;2022-11-15T16:20:28;1.65;;;0.90;;
49962;SDS011;36180;57.678;11.910;2022-11-15T16:23:00;0.50;;;0.50;;